Map

Track Data

SID SEASON NUMBER BASIN SUBBASIN NAME ISO_TIME NATURE LAT LON WMO_WIND WMO_PRES WMO_AGENCY TRACK_TYPE DIST2LAND LANDFALL IFLAG USA_AGENCY USA_ATCF_ID USA_LAT USA_LON USA_RECORD USA_STATUS USA_WIND USA_PRES USA_SSHS USA_R34_NE USA_R34_SE USA_R34_SW USA_R34_NW USA_R50_NE USA_R50_SE USA_R50_SW USA_R50_NW USA_R64_NE USA_R64_SE USA_R64_SW USA_R64_NW USA_POCI USA_ROCI USA_RMW USA_EYE TOKYO_LAT TOKYO_LON TOKYO_GRADE TOKYO_WIND TOKYO_PRES TOKYO_R50_DIR TOKYO_R50_LONG TOKYO_R50_SHORT TOKYO_R30_DIR TOKYO_R30_LONG TOKYO_R30_SHORT TOKYO_LAND CMA_LAT CMA_LON CMA_CAT CMA_WIND CMA_PRES HKO_LAT HKO_LON HKO_CAT HKO_WIND HKO_PRES NEWDELHI_LAT NEWDELHI_LON NEWDELHI_GRADE NEWDELHI_WIND NEWDELHI_PRES NEWDELHI_CI NEWDELHI_DP NEWDELHI_POCI REUNION_LAT REUNION_LON REUNION_TYPE REUNION_WIND REUNION_PRES REUNION_TNUM REUNION_CI REUNION_RMW REUNION_R34_NE REUNION_R34_SE REUNION_R34_SW REUNION_R34_NW REUNION_R50_NE REUNION_R50_SE REUNION_R50_SW REUNION_R50_NW REUNION_R64_NE REUNION_R64_SE REUNION_R64_SW REUNION_R64_NW BOM_LAT BOM_LON BOM_TYPE BOM_WIND BOM_PRES BOM_TNUM BOM_CI BOM_RMW BOM_R34_NE BOM_R34_SE BOM_R34_SW BOM_R34_NW BOM_R50_NE BOM_R50_SE BOM_R50_SW BOM_R50_NW BOM_R64_NE BOM_R64_SE BOM_R64_SW BOM_R64_NW BOM_ROCI BOM_POCI BOM_EYE BOM_POS_METHOD BOM_PRES_METHOD NADI_LAT NADI_LON NADI_CAT NADI_WIND NADI_PRES WELLINGTON_LAT WELLINGTON_LON WELLINGTON_WIND WELLINGTON_PRES DS824_LAT DS824_LON DS824_STAGE DS824_WIND DS824_PRES TD9636_LAT TD9636_LON TD9636_STAGE TD9636_WIND TD9636_PRES TD9635_LAT TD9635_LON TD9635_WIND TD9635_PRES TD9635_ROCI NEUMANN_LAT NEUMANN_LON NEUMANN_CLASS NEUMANN_WIND NEUMANN_PRES MLC_LAT MLC_LON MLC_CLASS MLC_WIND MLC_PRES USA_GUST BOM_GUST BOM_GUST_PER REUNION_GUST REUNION_GUST_PER USA_SEAHGT USA_SEARAD_NE USA_SEARAD_SE USA_SEARAD_SW USA_SEARAD_NW STORM_SPEED STORM_DIR
2009337N14143 2009 95 WP MM NOT_NAMED 2009-12-02 12:00:00 TS 13.8000 142.700 main 1795 1792 O_____________ jtwc_wp WP282009 13.8000 142.700 TD 20 1007 -1 1011 150 40 15 298
2009337N14143 2009 95 WP MM NOT_NAMED 2009-12-02 15:00:00 TS 14.1507 142.016 main 1794 1756 P_____________ WP282009 14.1507 142.016 TD 20 1004 -1 1009 150 40 13 303
2009337N14143 2009 95 WP MM NOT_NAMED 2009-12-02 18:00:00 NR 14.5000 141.600 main 1758 1758 O_____________ jtwc_wp WP282009 14.5000 141.600 DB 20 1002 -3 1008 150 40 8 330
2009337N14143 2009 95 WP MM NOT_NAMED 2009-12-02 21:00:00 NR 14.8498 141.604 main 1765 1765 P_____________ WP282009 14.8498 141.604 DB 20 1004 -3 1008 150 40 7 8
2009337N14143 2009 95 WP MM NOT_NAMED 2009-12-03 00:00:00 NR 15.2000 141.700 main 1782 1766 O_____________ jtwc_wp WP282009 15.2000 141.700 DB 20 1007 -3 1008 150 40 7 350
2009337N14143 2009 95 WP MM NOT_NAMED 2009-12-03 03:00:00 NR 15.5351 141.473 main 1766 1741 P_____________ WP282009 15.5351 141.473 DB 20 1004 -3 1007 190 40 9 325
2009337N14143 2009 95 WP MM NOT_NAMED 2009-12-03 06:00:00 NR 15.9000 141.200 main 1743 1729 O_____________ jtwc_wp WP282009 15.9000 141.200 DB 20 1002 -3 1006 230 40 9 331
2009337N14143 2009 95 WP MM NOT_NAMED 2009-12-03 09:00:00 NR 16.3049 141.025 main 1732 1732 P_____________ WP282009 16.3049 141.025 DB 20 1002 -3 1007 230 40 9 348
2009337N14143 2009 95 WP MM NOT_NAMED 2009-12-03 12:00:00 NR 16.8000 141.000 main 1746 1746 O_____________ jtwc_wp WP282009 16.8000 141.000 DB 20 1002 -3 1008 230 40 11 11
2009337N14143 2009 95 WP MM NOT_NAMED 2009-12-03 15:00:00 NR 17.3827 141.249 main 1785 1785 P_____________ WP282009 17.3827 141.249 DB 20 1004 -3 14 20
2009337N14143 2009 95 WP MM NOT_NAMED 2009-12-03 18:00:00 NR 18.1000 141.500 main 1799 1701 O_____________ jtwc_wp WP282009 18.1000 141.500 DB 20 1007 -3 16 6
2009337N14143 2009 95 WP MM NOT_NAMED 2009-12-03 21:00:00 NR 19.0075 141.424 main 1701 1602 P_____________ WP282009 19.0075 141.424 DB 22 1005 -3 18 354
2009337N14143 2009 95 WP MM NOT_NAMED 2009-12-04 00:00:00 TS 19.9000 141.300 main 1602 1539 O_____________ jtwc_wp WP282009 19.9000 141.300 TD 25 1004 -1 16 357
2009337N14143 2009 95 WP MM NOT_NAMED 2009-12-04 03:00:00 TS 20.5598 141.325 main 1528 1483 P_____________ WP282009 20.5598 141.325 TD 25 1004 -1 12 9
2009337N14143 2009 95 WP MM NOT_NAMED 2009-12-04 06:00:00 TS 21.1000 141.500 main 1483 1443 O_____________ jtwc_wp WP282009 21.1000 141.500 TD 25 1004 -1 12 24
2009337N14143 2009 95 WP MM NOT_NAMED 2009-12-04 09:00:00 TS 21.6375 141.840 main 1443 1408 P_____________ WP282009 21.6375 141.840 TD 25 1004 -1 13 37
2009337N14143 2009 95 WP MM NOT_NAMED 2009-12-04 12:00:00 TS 22.1000 142.300 main 1413 1391 O_____________ jtwc_wp WP282009 22.1000 142.300 TD 25 1004 -1 12 45
2009337N14143 2009 95 WP MM NOT_NAMED 2009-12-04 15:00:00 TS 22.4796 142.748 main 1391 1384 P_____________ WP282009 22.4796 142.748 TD 27 1002 -1 12 53
2009337N14143 2009 95 WP MM NOT_NAMED 2009-12-04 18:00:00 TS 22.8000 143.300 main 1387 1380 O_____________ jtwc_wp WP282009 22.8000 143.300 TD 30 1000 -1 1007 230 40 12 65
2009337N14143 2009 95 WP MM NOT_NAMED 2009-12-04 21:00:00 TS 22.9937 143.934 main 1383 1364 P_____________ WP282009 22.9937 143.934 TD 32 998 -1 1007 240 35 15 67
2009337N14143 2009 95 WP MM NOT_NAMED 2009-12-05 00:00:00 TS 23.4000 144.800 main 1368 1306 O_____________ jtwc_wp WP282009 23.4000 144.800 TS 35 996 0 1007 250 30 24 53
2009337N14143 2009 95 WP MM NOT_NAMED 2009-12-05 03:00:00 TS 24.4283 146.013 main 1310 1265 P_____________ WP282009 24.4283 146.013 TS 35 996 0 1007 250 45 32 48
2009337N14143 2009 95 WP MM NOT_NAMED 2009-12-05 06:00:00 TS 25.5000 147.400 main 1271 1268 O_____________ jtwc_wp WP282009 25.5000 147.400 TS 35 996 0 1007 250 60 30 56
2009337N14143 2009 95 WP MM NOT_NAMED 2009-12-05 09:00:00 TS 26.1085 148.730 main 1287 1287 P_____________ WP282009 26.1085 148.730 TS 32 998 -1 1007 250 60 25 69
2009337N14143 2009 95 WP MM NOT_NAMED 2009-12-05 12:00:00 ET 26.4000 150.000 main 1340 O_____________ jtwc_wp WP282009 26.4000 150.000 EX 30 1000 -4 1007 250 60 23 76

Digital Typhoon Data and Search

About IBTrACS Database

This database is a web-friendly format of International Best Track Archive for Climate Stewardship (IBTrACS), a global best track data archive curated by NOAA dating back to 1842.

Updated: 2021-12-03